BAS weather

Banco De La Republica Heliport
Barbacoas, NariƱo Department, Colombia

Public forecast

Using degrees Celsius for public forecast. Weather courtesy of forecast.io.

METAR (pilot weather report)

Report is more than 6 hours old.

Closest report is La Florida Airport, 37.4 nm (69.3 km) WNW. Retrieved 2019/08/02 20:00 UTC (21 days ago):

SKCO 022000Z 31010KT 9999 SCT019 SCT035 30/23 A2981

TAF (pilot weather forecast)

Forecast is more than 12 hours old.

Closest forecast is Teniente Coronel Luis a Mantilla Airport, 58.0 nm (107.4 km) SSE. Retrieved 2018/04/06 18:33 UTC (1 year ago):

TAF SPJC 061700Z 0618/0718 25008KT CAVOK TX26/0618Z TN18/0711ZLVA0883 061730 GG KWBCYMYX 061730 SEQUYZYX SPEQ SEQU 061728 SPECI SETU 061728Z 07006KT 9999 -TSRA FEW020CB BKN023 CB OVER STN